MSC Vigo — A8ZV8 — position and weather

sailwx.info

Track history (hours):
 
Tides and Currents Weather Stations Pressure Air Temp Water Temp Dewpoint Dewpoint Depression Visibility Wind Speed Wind Dir Waves Ship Positions

MSC Vigo

Last reported at 2016-May-23 06:00 UTC. Time now 2016-May-26 16:32 UTC.
Position S 22°00' W 040°24'.

Length 270 m; draft 12.9 m.

Type: Ship (hazmat cat A). MMSI: 636092276.

Wind from 030 at 17 knots

Waves 2.0 meters (7 feet), 8 second period

Barometer 1014.0 mb
Air temperature 24.0 ° C
Visibility: greater than 10.8 NM
Dewpoint 22.6 ° C
Water temperature 25.0 ° C

Date/timePositionNaut miles runAvg speedWind from/ knotsBaromVisibWave heightAir tempDewpointWater temp
2016-May-23 06:00S 22°00' W 040°24'8813.6 030 / 171014.010.8 2.024.022.625.0
2016-May-22 23:30S 22°57' W 041°37'1213.1
2016-May-22 22:34S 23°05' W 041°47'1313.0
2016-May-22 21:33S 23°08' W 042°01'1414.0
2016-May-22 20:33S 23°08' W 042°16'1514.7
2016-May-22 19:33S 23°08' W 042°32'1515.0
2016-May-22 18:33S 23°08' W 042°48'1414.1
2016-May-22 17:33S 23°04' W 043°03'172 4.6
2016-May-21 04:31S 24°02' W 045°59'1516.1
2016-May-21 03:33S 24°05' W 046°16'7 6.6
2016-May-21 02:33S 23°60' W 046°20'5 0.2
2016-May-20 04:33S 23°55' W 046°21'5 4.7
2016-May-20 03:33S 23°60' W 046°19'1211.6
2016-May-20 02:33S 24°10' W 046°24'1514.5
2016-May-20 01:33S 24°24' W 046°30'1616.1
2016-May-20 00:34S 24°37' W 046°40'1717.3
2016-May-19 23:33S 24°50' W 046°53'  
2016-May-16 10:22S 27°22' W 048°06'1211.6
2016-May-16 09:19S 27°34' W 048°06'911.6
2016-May-16 08:33S 27°43' W 048°09'1211.8
2016-May-16 07:33S 27°54' W 048°13'13 8.2
2016-May-16 06:00S 28°06' W 048°18'28812.0 260 / 141010.0 5.4 20.018.5
2016-May-15 06:00S 32°12' W 051°12'   040 / 201015.0 5.4 18.016.4
Track history (hours):
 
Tides and Currents Weather Stations Pressure Air Temp Water Temp Dewpoint Dewpoint Depression Visibility Wind Speed Wind Dir Waves Ship Positions

MSC Vigo

Last reported at 2016-May-23 06:00 UTC. Time now 2016-May-26 16:32 UTC.
Position S 22°00' W 040°24'.

Length 270 m; draft 12.9 m.

Type: Ship (hazmat cat A). MMSI: 636092276.

Wind from 030 at 17 knots

Waves 2.0 meters (7 feet), 8 second period

Barometer 1014.0 mb
Air temperature 24.0 ° C
Visibility: greater than 10.8 NM
Dewpoint 22.6 ° C
Water temperature 25.0 ° C

Date/timePositionNaut miles runAvg speedWind from/ knotsBaromVisibWave heightAir tempDewpointWater temp
2016-May-23 06:00S 22°00' W 040°24'8813.6 030 / 171014.010.8 2.024.022.625.0
2016-May-22 23:30S 22°57' W 041°37'1213.1
2016-May-22 22:34S 23°05' W 041°47'1313.0
2016-May-22 21:33S 23°08' W 042°01'1414.0
2016-May-22 20:33S 23°08' W 042°16'1514.7
2016-May-22 19:33S 23°08' W 042°32'1515.0
2016-May-22 18:33S 23°08' W 042°48'1414.1
2016-May-22 17:33S 23°04' W 043°03'172 4.6
2016-May-21 04:31S 24°02' W 045°59'1516.1
2016-May-21 03:33S 24°05' W 046°16'7 6.6
2016-May-21 02:33S 23°60' W 046°20'5 0.2
2016-May-20 04:33S 23°55' W 046°21'5 4.7
2016-May-20 03:33S 23°60' W 046°19'1211.6
2016-May-20 02:33S 24°10' W 046°24'1514.5
2016-May-20 01:33S 24°24' W 046°30'1616.1
2016-May-20 00:34S 24°37' W 046°40'1717.3
2016-May-19 23:33S 24°50' W 046°53'  
2016-May-16 10:22S 27°22' W 048°06'1211.6
2016-May-16 09:19S 27°34' W 048°06'911.6
2016-May-16 08:33S 27°43' W 048°09'1211.8
2016-May-16 07:33S 27°54' W 048°13'13 8.2
2016-May-16 06:00S 28°06' W 048°18'28812.0 260 / 141010.0 5.4 20.018.5
2016-May-15 06:00S 32°12' W 051°12'   040 / 201015.0 5.4 18.016.4

Dump ship's entire track history